Time;durP1;ratioP1;P1;durP2;ratioP2;P2;SDS_P1;SDS_P2;PMS_P1;PMS_P2;Temp;Humidity;BMP_temperature;BMP_pressure;BME280_temperature;BME280_humidity;BME280_pressure;Samples;Min_cycle;Max_cycle;Signal;HPM_P1;HPM_P2
2023/01/01 00:00:47;;;;;;;17.38;2.42;;;12.20;99.90;;;;;;5116834;28;20494;-75
2023/01/01 00:03:15;;;;;;;23.85;3.03;;;12.20;99.90;;;;;;5116689;28;20384;-76
2023/01/01 00:05:42;;;;;;;19.13;3.80;;;12.20;99.90;;;;;;5097660;28;20067;-77
2023/01/01 00:08:10;;;;;;;20.42;4.88;;;12.20;99.90;;;;;;5082698;28;20063;-76
2023/01/01 00:10:37;;;;;;;26.25;8.77;;;12.10;99.90;;;;;;5097685;28;20468;-75
2023/01/01 00:13:11;;;;;;;19.38;8.00;;;12.10;99.90;;;;;;5116517;28;20464;-76
2023/01/01 00:15:39;;;;;;;21.90;4.20;;;12.20;99.90;;;;;;5097860;28;20047;-75
2023/01/01 00:18:06;;;;;;;20.38;4.40;;;12.10;99.90;;;;;;5115466;28;20464;-75
2023/01/01 00:20:34;;;;;;;18.98;4.47;;;12.10;99.90;;;;;;5117145;28;20048;-75
2023/01/01 00:23:02;;;;;;;21.58;6.15;;;12.00;99.90;;;;;;5116576;28;20043;-76
2023/01/01 00:25:31;;;;;;;14.18;2.42;;;12.00;99.90;;;;;;5080680;28;20476;-75
2023/01/01 00:27:58;;;;;;;14.30;2.33;;;12.00;99.90;;;;;;5098862;28;20048;-76
2023/01/01 00:30:26;;;;;;;15.13;2.30;;;11.90;99.90;;;;;;5097830;28;20039;-76
2023/01/01 00:32:53;;;;;;;15.68;1.98;;;11.90;99.90;;;;;;5116364;28;20036;-76
2023/01/01 00:35:26;;;;;;;10.90;2.05;;;11.80;99.90;;;;;;5116076;28;20383;-75
2023/01/01 00:37:54;;;;;;;15.45;2.00;;;11.70;99.90;;;;;;5097992;28;20161;-75
2023/01/01 00:40:22;;;;;;;13.15;3.20;;;11.70;99.90;;;;;;5116183;28;20058;-74
2023/01/01 00:42:49;;;;;;;15.13;2.92;;;11.60;99.90;;;;;;5116050;28;20066;-76
2023/01/01 00:45:17;;;;;;;14.68;2.40;;;11.60;99.90;;;;;;5096925;28;20051;-76
2023/01/01 00:47:50;;;;;;;15.77;2.63;;;11.50;99.90;;;;;;5081801;28;20047;-76
2023/01/01 00:50:22;;;;;;;18.05;2.90;;;11.50;99.90;;;;;;5097201;28;20040;-76
2023/01/01 00:52:49;;;;;;;21.83;2.70;;;11.50;99.90;;;;;;5116068;28;20059;-76
2023/01/01 00:55:17;;;;;;;14.32;2.60;;;11.50;99.90;;;;;;5115983;28;20047;-76
2023/01/01 00:57:45;;;;;;;16.60;2.58;;;11.50;99.90;;;;;;5096917;28;20055;-76
2023/01/01 01:00:13;;;;;;;19.55;2.42;;;11.40;99.90;;;;;;5098463;28;20051;-76
2023/01/01 01:02:41;;;;;;;19.42;2.70;;;11.40;99.90;;;;;;5098013;28;20056;-76
2023/01/01 01:05:09;;;;;;;14.02;2.53;;;11.50;99.90;;;;;;5114569;28;20050;-76
2023/01/01 01:07:37;;;;;;;18.05;2.40;;;11.30;99.90;;;;;;5097767;28;20040;-75
2023/01/01 01:10:06;;;;;;;13.30;2.30;;;11.30;99.90;;;;;;5097667;28;20040;-75
2023/01/01 01:12:34;;;;;;;19.80;2.35;;;11.30;99.90;;;;;;5115137;28;20359;-76
2023/01/01 01:15:03;;;;;;;15.65;2.50;;;11.30;99.90;;;;;;5097560;28;20056;-75
2023/01/01 01:17:31;;;;;;;22.48;2.65;;;11.30;99.90;;;;;;5114859;28;20051;-76
2023/01/01 01:19:59;;;;;;;21.55;2.47;;;11.30;99.90;;;;;;5115658;28;20051;-75
2023/01/01 01:22:27;;;;;;;21.02;2.63;;;11.30;99.90;;;;;;5097457;28;20054;-76
2023/01/01 01:24:56;;;;;;;16.33;2.83;;;11.20;99.90;;;;;;5114091;28;20468;-75
2023/01/01 01:27:24;;;;;;;13.48;2.60;;;11.20;99.90;;;;;;5081076;28;20070;-76
2023/01/01 01:29:52;;;;;;;20.77;2.97;;;11.10;99.90;;;;;;5098171;28;20204;-76
2023/01/01 01:32:20;;;;;;;;;;;11.10;99.90;;;;;;5114588;28;20044;-76
2023/01/01 01:34:47;;;;;;;25.20;2.90;;;11.10;99.90;;;;;;5115168;28;19919;-75
2023/01/01 01:37:15;;;;;;;18.90;2.55;;;11.00;99.90;;;;;;5114058;28;20043;-76
2023/01/01 01:39:42;;;;;;;19.08;2.50;;;11.30;99.90;;;;;;5097631;28;20073;-76
2023/01/01 01:42:17;;;;;;;24.58;2.80;;;11.00;99.90;;;;;;5115068;28;20059;-75
2023/01/01 01:44:45;;;;;;;18.00;2.70;;;11.00;99.90;;;;;;5113885;28;20046;-75
2023/01/01 01:47:16;;;;;;;;;;;11.00;99.90;;;;;;5081176;28;20043;-75
2023/01/01 01:49:44;;;;;;;19.00;3.08;;;11.00;99.90;;;;;;5097436;28;19931;-76
2023/01/01 01:52:12;;;;;;;18.35;2.55;;;10.90;99.90;;;;;;5113845;28;20055;-75
2023/01/01 01:54:40;;;;;;;18.88;2.92;;;10.90;99.90;;;;;;5115008;28;20387;-76
2023/01/01 01:57:10;;;;;;;18.75;2.80;;;11.00;99.90;;;;;;5114133;28;20210;-76
2023/01/01 01:59:42;;;;;;;19.60;2.75;;;10.90;99.90;;;;;;5063907;28;20051;-75
2023/01/01 02:02:39;;;;;;;16.35;2.47;;;10.90;99.90;;;;;;5097183;28;20047;-76
2023/01/01 02:05:07;;;;;;;23.67;3.30;;;10.90;99.90;;;;;;5104810;28;20503;-76
2023/01/01 02:07:35;;;;;;;20.48;3.15;;;10.90;99.90;;;;;;5097181;28;20044;-76
2023/01/01 02:10:03;;;;;;;22.75;3.50;;;10.90;99.90;;;;;;5097117;28;20449;-76
2023/01/01 02:12:31;;;;;;;24.58;2.83;;;10.90;99.90;;;;;;5113917;28;20043;-75
2023/01/01 02:14:58;;;;;;;28.63;3.60;;;10.90;99.90;;;;;;5096849;28;20383;-76
2023/01/01 02:17:47;;;;;;;26.33;3.70;;;10.90;99.90;;;;;;5113654;28;20047;-77
2023/01/01 02:20:42;;;;;;;19.90;3.35;;;10.90;99.90;;;;;;5097058;28;20376;-76
2023/01/01 02:23:16;;;;;;;26.33;3.67;;;10.90;99.90;;;;;;5079875;28;20043;-75
2023/01/01 02:26:08;;;;;;;28.92;3.45;;;10.90;99.90;;;;;;5095923;28;20043;-75
2023/01/01 02:29:01;;;;;;;28.52;3.25;;;10.90;99.90;;;;;;5115158;28;20054;-76
2023/01/01 02:31:37;;;;;;;23.77;3.40;;;10.90;99.90;;;;;;5095755;28;20039;-76
2023/01/01 02:34:09;;;;;;;30.30;3.50;;;10.80;99.90;;;;;;5115015;28;20471;-76
2023/01/01 02:36:42;;;;;;;20.30;3.30;;;10.90;99.90;;;;;;5114831;28;20368;-75
2023/01/01 02:39:13;;;;;;;22.00;3.85;;;10.90;99.90;;;;;;5097341;28;20040;-75
2023/01/01 02:41:44;;;;;;;20.95;2.80;;;10.90;99.90;;;;;;5100930;28;20043;-76
2023/01/01 02:44:12;;;;;;;21.38;3.42;;;10.80;99.90;;;;;;5099292;28;20050;-75
2023/01/01 02:46:39;;;;;;;29.00;3.30;;;11.30;99.90;;;;;;5118699;28;20479;-76
2023/01/01 02:49:08;;;;;;;23.15;3.72;;;10.80;99.90;;;;;;5100767;28;20067;-76
2023/01/01 02:52:01;;;;;;;23.90;3.20;;;10.80;99.90;;;;;;5082626;28;20047;-76
2023/01/01 02:54:51;;;;;;;26.08;3.67;;;10.70;99.90;;;;;;5100261;28;20055;-75
2023/01/01 02:57:38;;;;;;;26.00;3.17;;;10.70;99.90;;;;;;5117048;28;20043;-76
2023/01/01 03:00:23;;;;;;;29.17;3.67;;;10.70;99.90;;;;;;5100618;28;20058;-75
2023/01/01 03:03:24;;;;;;;23.67;3.00;;;10.80;99.90;;;;;;5100316;28;20063;-76
2023/01/01 03:06:25;;;;;;;23.48;3.17;;;10.60;99.90;;;;;;5098906;28;20059;-76
2023/01/01 03:08:59;;;;;;;28.20;4.05;;;10.60;99.90;;;;;;5118070;28;20043;-74
2023/01/01 03:11:36;;;;;;;34.88;4.13;;;10.60;99.90;;;;;;5099248;28;20061;-76
2023/01/01 03:14:22;;;;;;;23.33;3.42;;;10.50;99.90;;;;;;5083365;28;20047;-75
2023/01/01 03:16:57;;;;;;;21.08;3.65;;;11.20;99.90;;;;;;5099640;28;20063;-76
2023/01/01 03:19:29;;;;;;;28.23;3.65;;;10.50;99.90;;;;;;5083364;28;20062;-76
2023/01/01 03:22:04;;;;;;;25.42;3.30;;;11.10;99.90;;;;;;5099846;28;20039;-75
2023/01/01 03:24:43;;;;;;;27.70;3.83;;;10.50;99.90;;;;;;5116969;28;20039;-76
2023/01/01 03:27:25;;;;;;;32.40;4.07;;;10.50;99.90;;;;;;5100105;28;20353;-75
2023/01/01 03:29:56;;;;;;;32.60;3.65;;;10.40;99.90;;;;;;5082804;28;20043;-75
2023/01/01 03:35:22;;;;;;;33.13;4.30;;;10.40;99.90;;;;;;5099901;28;20051;-76
2023/01/01 03:37:52;;;;;;;43.97;5.13;;;10.30;99.90;;;;;;5098587;28;20039;-76
2023/01/01 03:40:21;;;;;;;30.65;4.55;;;10.70;99.90;;;;;;5117487;28;20043;-76
2023/01/01 03:42:54;;;;;;;34.38;4.60;;;10.80;99.90;;;;;;5099984;28;20490;-75
2023/01/01 03:45:27;;;;;;;36.45;4.53;;;11.20;99.90;;;;;;5116247;28;20101;-75
2023/01/01 03:47:55;;;;;;;33.75;4.47;;;10.20;99.90;;;;;;5082721;28;20044;-76
2023/01/01 03:50:27;;;;;;;;;;;11.10;99.90;;;;;;5098627;28;20054;-76
2023/01/01 03:53:07;;;;;;;28.95;4.20;;;10.30;99.90;;;;;;5099451;28;19926;-76
2023/01/01 03:55:43;;;;;;;32.03;4.18;;;10.20;99.90;;;;;;5117376;28;20059;-76
2023/01/01 03:58:30;;;;;;;34.47;4.07;;;10.20;99.90;;;;;;5098190;28;20044;-76
2023/01/01 04:01:09;;;;;;;34.90;4.40;;;10.30;99.90;;;;;;5099574;28;20055;-75
2023/01/01 04:03:38;;;;;;;23.75;3.78;;;10.20;99.90;;;;;;5116459;28;20052;-76
2023/01/01 04:06:06;;;;;;;36.85;4.18;;;10.30;99.90;;;;;;5116739;28;20044;-75
2023/01/01 04:08:34;;;;;;;38.08;4.55;;;10.30;99.90;;;;;;5116733;28;20048;-76
2023/01/01 04:14:01;;;;;;;31.25;3.85;;;10.30;99.90;;;;;;5099420;28;20059;-76
2023/01/01 04:16:28;;;;;;;33.92;4.03;;;10.40;99.90;;;;;;5116797;28;20039;-75
2023/01/01 04:18:56;;;;;;;31.27;3.80;;;10.20;99.90;;;;;;5097744;28;20054;-75
2023/01/01 04:21:23;;;;;;;33.03;4.00;;;10.40;99.90;;;;;;5116568;28;20043;-76
2023/01/01 04:23:51;;;;;;;33.30;4.18;;;10.20;99.90;;;;;;5115494;28;20392;-75
2023/01/01 04:26:18;;;;;;;39.55;4.88;;;10.20;99.90;;;;;;5099221;28;20039;-75
2023/01/01 04:28:46;;;;;;;;;;;10.20;99.90;;;;;;5116792;28;20039;-76
2023/01/01 04:31:13;;;;;;;29.48;3.75;;;10.20;99.90;;;;;;5115317;28;19942;-75
2023/01/01 04:33:41;;;;;;;34.35;4.53;;;10.20;99.90;;;;;;5116390;28;20035;-75
2023/01/01 04:36:09;;;;;;;38.28;3.95;;;10.10;99.90;;;;;;5116369;28;20047;-76
2023/01/01 04:38:37;;;;;;;39.97;4.35;;;10.10;99.90;;;;;;5097281;28;20357;-74
2023/01/01 04:41:05;;;;;;;30.75;4.68;;;10.80;99.90;;;;;;5116063;28;20046;-75
2023/01/01 04:43:32;;;;;;;49.53;4.97;;;10.10;99.90;;;;;;5097176;28;20050;-75
2023/01/01 04:46:02;;;;;;;38.70;5.20;;;10.10;99.90;;;;;;5116157;28;20043;-74
2023/01/01 04:48:30;;;;;;;41.25;5.30;;;10.10;99.90;;;;;;5098518;28;20276;-75
2023/01/01 04:51:03;;;;;;;37.65;5.32;;;10.10;99.90;;;;;;5114911;28;20044;-76
2023/01/01 04:53:33;;;;;;;55.08;5.65;;;10.10;99.90;;;;;;5098658;28;20051;-76
2023/01/01 04:56:09;;;;;;;39.05;5.10;;;10.10;99.90;;;;;;5116460;28;20043;-76
2023/01/01 04:58:39;;;;;;;56.30;5.72;;;10.20;99.90;;;;;;5114636;28;20047;-75
2023/01/01 05:01:08;;;;;;;35.33;5.18;;;10.20;99.90;;;;;;5115576;28;20048;-76
2023/01/01 05:03:36;;;;;;;47.10;5.72;;;10.20;99.90;;;;;;5096279;28;20044;-75
2023/01/01 05:06:06;;;;;;;;;;;10.20;99.90;;;;;;5115900;28;20051;-75
2023/01/01 05:08:36;;;;;;;45.35;5.65;;;10.20;99.90;;;;;;5098418;28;19931;-75
2023/01/01 05:11:06;;;;;;;46.85;5.82;;;10.20;99.90;;;;;;5114368;28;20133;-76
2023/01/01 05:13:35;;;;;;;46.80;4.53;;;10.20;99.90;;;;;;5115766;28;20502;-77
2023/01/01 05:16:07;;;;;;;38.88;4.18;;;10.30;99.90;;;;;;5115900;28;20456;-75
2023/01/01 05:18:35;;;;;;;48.70;5.28;;;10.10;99.90;;;;;;5096727;28;20059;-75
2023/01/01 05:21:06;;;;;;;41.42;5.03;;;10.20;99.90;;;;;;5115924;28;20379;-74
2023/01/01 05:23:34;;;;;;;47.63;5.40;;;9.90;99.90;;;;;;5096692;28;20052;-75
2023/01/01 05:26:12;;;;;;;57.13;5.65;;;10.50;99.90;;;;;;5115400;28;20047;-74
2023/01/01 05:28:41;;;;;;;69.28;6.30;;;9.70;99.90;;;;;;5115436;28;20047;-74
2023/01/01 05:31:11;;;;;;;60.50;5.75;;;9.70;99.90;;;;;;5114187;28;20035;-74
2023/01/01 05:33:39;;;;;;;49.03;4.40;;;9.60;99.90;;;;;;5115590;28;20044;-74
2023/01/01 05:36:09;;;;;;;58.67;5.85;;;9.60;99.90;;;;;;5097783;28;20459;-73
2023/01/01 05:38:36;;;;;;;61.67;5.82;;;9.50;99.90;;;;;;5114263;28;20059;-75
2023/01/01 05:41:08;;;;;;;55.75;5.47;;;9.50;99.90;;;;;;5115267;28;20048;-74
2023/01/01 05:43:36;;;;;;;57.97;5.50;;;9.80;99.90;;;;;;5096382;28;20051;-75
2023/01/01 05:46:10;;;;;;;57.35;5.57;;;10.10;99.90;;;;;;5114958;28;20046;-74
2023/01/01 05:48:38;;;;;;;57.47;5.03;;;9.50;99.90;;;;;;5115296;28;20040;-74
2023/01/01 05:51:10;;;;;;;53.15;5.00;;;9.50;99.90;;;;;;5096326;28;20122;-74
2023/01/01 05:53:38;;;;;;;55.72;5.00;;;9.50;99.90;;;;;;5114898;28;20059;-74
2023/01/01 05:56:06;;;;;;;49.63;4.65;;;9.50;99.90;;;;;;5114957;28;20048;-74
2023/01/01 05:58:34;;;;;;;53.42;5.45;;;9.40;99.90;;;;;;5113986;28;20349;-75
2023/01/01 06:01:21;;;;;;;49.10;4.82;;;9.50;99.90;;;;;;5097134;28;20372;-75
2023/01/01 06:03:51;;;;;;;45.92;5.15;;;9.50;99.90;;;;;;5113991;28;20664;-75
2023/01/01 06:06:21;;;;;;;52.33;5.53;;;9.50;99.90;;;;;;5096946;28;20055;-74
2023/01/01 06:08:51;;;;;;;47.78;5.00;;;9.40;99.90;;;;;;5097796;28;20055;-75
2023/01/01 06:11:18;;;;;;;42.05;4.15;;;9.50;99.90;;;;;;5113773;28;20039;-74
2023/01/01 06:13:46;;;;;;;53.60;5.63;;;9.40;99.90;;;;;;5115549;28;20035;-75
2023/01/01 06:16:14;;;;;;;50.92;5.18;;;9.90;99.90;;;;;;5119188;28;20054;-75
2023/01/01 06:18:41;;;;;;;62.80;6.15;;;9.40;99.90;;;;;;5099925;28;20464;-74
2023/01/01 06:21:15;;;;;;;47.58;5.30;;;9.70;99.90;;;;;;5119055;28;20069;-74
2023/01/01 06:23:43;;;;;;;39.90;4.68;;;9.80;99.90;;;;;;5117658;28;20047;-74
2023/01/01 06:26:14;;;;;;;53.00;5.57;;;9.90;99.90;;;;;;5084160;28;20040;-74
2023/01/01 06:28:42;;;;;;;44.63;4.85;;;9.50;99.90;;;;;;5118844;28;20047;-74
2023/01/01 06:31:12;;;;;;;57.58;5.57;;;9.70;99.90;;;;;;5117613;28;20036;-75
2023/01/01 06:33:40;;;;;;;55.28;5.00;;;9.50;99.90;;;;;;5084335;28;20036;-75
2023/01/01 06:36:10;;;;;;;47.85;5.50;;;10.20;99.90;;;;;;5118667;28;20050;-75
2023/01/01 06:38:41;;;;;;;52.58;5.85;;;9.60;99.90;;;;;;5117562;28;20047;-74
2023/01/01 06:41:15;;;;;;;60.10;6.13;;;9.60;99.90;;;;;;5118865;28;20361;-74
2023/01/01 06:43:43;;;;;;;54.17;4.80;;;9.80;99.90;;;;;;5117260;28;20157;-74
2023/01/01 06:46:22;;;;;;;54.08;6.53;;;9.70;99.90;;;;;;5100913;28;20046;-75
2023/01/01 06:48:53;;;;;;;57.38;5.80;;;10.50;99.90;;;;;;5101075;28;20039;-74
2023/01/01 06:51:26;;;;;;;48.03;4.78;;;9.90;99.90;;;;;;5117225;28;20044;-75
2023/01/01 06:53:56;;;;;;;42.45;5.38;;;9.70;99.90;;;;;;5118317;28;20462;-75
2023/01/01 06:56:24;;;;;;;48.25;5.10;;;10.20;99.90;;;;;;5118118;28;20052;-74
2023/01/01 06:58:51;;;;;;;48.72;5.53;;;10.00;99.90;;;;;;5117083;28;20067;-75
2023/01/01 07:01:22;;;;;;;53.80;5.53;;;10.00;99.90;;;;;;5100587;28;20502;-75
2023/01/01 07:03:55;;;;;;;44.92;4.78;;;10.30;99.90;;;;;;5099487;28;20406;-75
2023/01/01 07:06:23;;;;;;;42.38;5.10;;;9.60;99.90;;;;;;5118004;28;20054;-74
2023/01/01 07:08:51;;;;;;;38.75;4.40;;;9.90;99.90;;;;;;5083577;28;20039;-75
2023/01/01 07:11:19;;;;;;;43.92;4.93;;;9.50;99.90;;;;;;5117225;28;20376;-75
2023/01/01 07:13:46;;;;;;;45.60;5.10;;;9.90;99.90;;;;;;5117853;28;20044;-74
2023/01/01 07:16:14;;;;;;;52.03;6.00;;;10.80;99.90;;;;;;5118094;28;20043;-75
2023/01/01 07:18:43;;;;;;;47.10;5.00;;;10.30;99.90;;;;;;5099346;28;20052;-75
2023/01/01 07:21:38;;;;;;;49.03;5.45;;;9.50;99.90;;;;;;5117854;28;20066;-75
2023/01/01 07:24:10;;;;;;;50.20;4.50;;;9.50;99.90;;;;;;5098658;28;20047;-75
2023/01/01 07:26:37;;;;;;;48.88;5.43;;;9.50;99.90;;;;;;5117820;28;20364;-74
2023/01/01 07:29:05;;;;;;;49.33;5.40;;;10.70;99.90;;;;;;5117880;28;20380;-75
2023/01/01 07:31:36;;;;;;;54.03;5.03;;;9.50;99.90;;;;;;5098391;28;20502;-75
2023/01/01 07:34:05;;;;;;;44.72;4.55;;;9.50;99.90;;;;;;5100246;28;20456;-75
2023/01/01 07:36:33;;;;;;;53.80;5.75;;;9.40;99.90;;;;;;5100139;28;20379;-75
2023/01/01 07:39:00;;;;;;;57.75;6.43;;;9.50;99.90;;;;;;5098441;28;20055;-75
2023/01/01 07:41:28;;;;;;;51.80;5.93;;;9.40;99.90;;;;;;5117358;28;20044;-75
2023/01/01 07:43:58;;;;;;;57.63;5.90;;;9.60;99.90;;;;;;5098261;28;20050;-74
2023/01/01 07:46:26;;;;;;;;;;;10.30;99.90;;;;;;5099956;28;20048;-75
2023/01/01 07:48:53;;;;;;;49.10;5.57;;;9.40;99.90;;;;;;5099202;28;20375;-75
2023/01/01 07:51:21;;;;;;;52.15;5.15;;;9.90;99.90;;;;;;5116192;28;20368;-74
2023/01/01 07:53:49;;;;;;;;;;;10.20;99.90;;;;;;5100064;28;20372;-75
2023/01/01 07:56:16;;;;;;;47.35;5.38;;;9.40;99.90;;;;;;5099273;28;19924;-74
2023/01/01 07:58:44;;;;;;;58.83;6.57;;;10.10;99.90;;;;;;5098012;28;20043;-75
2023/01/01 08:01:13;;;;;;;58.10;6.22;;;9.90;99.90;;;;;;5082817;28;20160;-74
2023/01/01 08:03:41;;;;;;;51.15;5.30;;;10.10;99.90;;;;;;5115853;28;20042;-74
2023/01/01 08:06:11;;;;;;;59.22;6.40;;;10.10;99.90;;;;;;5116761;28;20048;-74
2023/01/01 08:08:39;;;;;;;65.57;6.78;;;9.40;99.90;;;;;;5116929;28;20047;-75
2023/01/01 08:11:07;;;;;;;60.35;6.97;;;9.80;99.90;;;;;;5097889;28;20058;-76
2023/01/01 08:13:35;;;;;;;68.57;6.05;;;9.40;99.90;;;;;;5117364;28;20044;-75
2023/01/01 08:16:03;;;;;;;63.15;6.65;;;9.50;99.90;;;;;;5099308;28;20067;-75
2023/01/01 08:18:31;;;;;;;72.68;6.68;;;9.50;99.90;;;;;;5098042;28;20043;-75
2023/01/01 08:20:58;;;;;;;62.65;6.43;;;9.50;99.90;;;;;;5116646;28;20495;-75
2023/01/01 08:23:25;;;;;;;55.53;6.40;;;9.50;99.90;;;;;;5116469;28;20491;-74
2023/01/01 08:25:57;;;;;;;55.92;6.22;;;9.40;99.90;;;;;;5097758;28;20039;-75
2023/01/01 08:28:24;;;;;;;56.25;6.22;;;9.40;99.90;;;;;;5099019;28;20039;-75
2023/01/01 08:30:52;;;;;;;51.78;6.00;;;11.00;99.90;;;;;;5115752;28;20042;-75
2023/01/01 08:33:20;;;;;;;62.78;6.65;;;9.70;99.90;;;;;;5116432;28;20040;-75
2023/01/01 08:35:48;;;;;;;65.40;7.13;;;10.80;99.90;;;;;;5081457;28;20051;-75
2023/01/01 08:38:21;;;;;;;46.60;5.53;;;10.40;99.90;;;;;;5114587;28;20047;-75
2023/01/01 08:40:48;;;;;;;57.42;5.70;;;9.40;99.90;;;;;;5098801;28;20378;-75
2023/01/01 08:43:16;;;;;;;69.50;6.53;;;9.40;99.90;;;;;;5116447;28;20066;-75
2023/01/01 08:45:44;;;;;;;44.72;4.95;;;9.40;99.90;;;;;;5080336;28;20283;-75
2023/01/01 08:48:11;;;;;;;58.63;6.60;;;9.70;99.90;;;;;;5115931;28;20133;-75
2023/01/01 08:50:39;;;;;;;50.53;6.43;;;9.80;99.90;;;;;;5080299;28;20054;-74
2023/01/01 08:53:06;;;;;;;59.75;6.63;;;9.50;99.90;;;;;;5116167;28;20075;-75
2023/01/01 08:55:34;;;;;;;50.38;5.85;;;10.60;99.90;;;;;;5097510;28;20031;-74
2023/01/01 08:58:05;;;;;;;55.38;6.10;;;9.50;99.90;;;;;;5096765;28;20399;-74
2023/01/01 09:00:33;;;;;;;48.47;6.03;;;9.50;99.90;;;;;;5116208;28;20039;-74
2023/01/01 09:03:00;;;;;;;58.85;5.68;;;9.50;99.90;;;;;;5098003;28;20040;-74
2023/01/01 09:05:28;;;;;;;51.00;5.97;;;9.50;99.90;;;;;;5087146;28;20052;-75
2023/01/01 09:07:55;;;;;;;51.53;6.03;;;10.70;99.90;;;;;;5095682;28;20058;-74
2023/01/01 09:10:23;;;;;;;63.47;5.97;;;9.50;99.90;;;;;;5094379;28;20349;-75
2023/01/01 09:12:50;;;;;;;56.67;6.10;;;9.40;99.90;;;;;;5077696;28;20052;-74
2023/01/01 09:15:18;;;;;;;62.97;6.95;;;9.40;99.90;;;;;;5095340;28;20047;-75
2023/01/01 09:17:45;;;;;;;64.32;6.35;;;9.40;99.90;;;;;;5094082;28;20048;-75
2023/01/01 09:20:13;;;;;;;55.20;6.60;;;9.40;99.90;;;;;;5094441;28;20487;-74
2023/01/01 09:22:40;;;;;;;59.22;6.75;;;9.50;99.90;;;;;;5076974;28;20051;-75
2023/01/01 09:25:08;;;;;;;55.97;6.53;;;9.50;99.90;;;;;;5093679;28;20376;-76
2023/01/01 09:27:35;;;;;;;56.63;6.60;;;9.60;99.90;;;;;;5094748;28;20491;-77
2023/01/01 09:30:03;;;;;;;58.75;7.00;;;9.70;99.90;;;;;;5077392;28;20055;-79
2023/01/01 09:32:31;;;;;;;55.42;6.82;;;9.70;99.90;;;;;;5094307;28;20036;-79
2023/01/01 09:34:59;;;;;;;50.35;5.88;;;9.80;99.90;;;;;;5076616;28;20044;-78
2023/01/01 09:37:27;;;;;;;51.30;5.65;;;9.90;99.90;;;;;;5075949;28;20059;-77
2023/01/01 09:39:55;;;;;;;50.92;6.57;;;9.90;99.90;;;;;;5094635;28;20040;-77
2023/01/01 09:42:28;;;;;;;52.58;6.88;;;10.00;99.90;;;;;;5094558;28;20051;-76
2023/01/01 09:45:16;;;;;;;57.22;6.05;;;10.00;99.90;;;;;;5093359;28;20044;-78
2023/01/01 09:48:02;;;;;;;52.80;6.32;;;10.10;99.90;;;;;;5062085;28;20044;-76
2023/01/01 09:50:39;;;;;;;53.20;6.45;;;10.20;99.90;;;;;;5073448;28;20303;-75
2023/01/01 09:53:21;;;;;;;51.17;5.97;;;10.20;99.90;;;;;;5076842;28;20055;-74
2023/01/01 09:56:00;;;;;;;63.05;7.20;;;10.60;99.90;;;;;;5056700;28;20044;-76
2023/01/01 09:58:33;;;;;;;66.50;6.93;;;10.50;99.90;;;;;;5057051;28;20055;-78
2023/01/01 10:01:09;;;;;;;54.63;7.00;;;10.30;99.90;;;;;;5060418;28;20071;-76
2023/01/01 10:03:51;;;;;;;50.10;6.90;;;10.40;99.90;;;;;;5075758;28;20052;-77
2023/01/01 10:06:29;;;;;;;61.63;7.30;;;10.50;99.90;;;;;;5093172;28;20051;-78
2023/01/01 10:09:11;;;;;;;64.25;7.03;;;10.70;99.90;;;;;;5114941;28;20483;-75
2023/01/01 10:12:04;;;;;;;64.15;7.13;;;10.60;99.90;;;;;;5113821;28;20043;-78
2023/01/01 10:14:35;;;;;;;48.33;6.57;;;10.60;99.90;;;;;;5114803;28;20494;-76
2023/01/01 10:17:16;;;;;;;61.92;7.30;;;10.70;99.90;;;;;;5113783;28;20468;-76
2023/01/01 10:19:49;;;;;;;45.70;6.85;;;10.70;99.90;;;;;;5114792;28;20380;-77
2023/01/01 10:22:32;;;;;;;42.80;5.63;;;10.70;99.90;;;;;;5114835;28;20480;-76
2023/01/01 10:25:14;;;;;;;47.88;6.35;;;10.80;99.90;;;;;;5095928;28;20379;-76
2023/01/01 10:27:52;;;;;;;56.00;6.80;;;10.80;99.90;;;;;;5096953;28;20356;-75
2023/01/01 10:30:27;;;;;;;47.78;5.95;;;10.90;99.90;;;;;;5113756;28;20039;-75
2023/01/01 10:32:56;;;;;;;42.25;6.18;;;10.90;99.90;;;;;;5096975;28;20482;-77
2023/01/01 10:35:38;;;;;;;47.65;6.00;;;11.00;99.90;;;;;;5080159;28;20043;-77
2023/01/01 10:38:05;;;;;;;55.90;6.75;;;11.00;99.90;;;;;;5096190;28;20043;-77
2023/01/01 10:40:33;;;;;;;51.70;6.30;;;11.00;99.90;;;;;;5114599;28;20375;-76
2023/01/01 10:43:02;;;;;;;58.05;7.10;;;11.00;99.90;;;;;;5114538;28;20073;-77
2023/01/01 10:45:42;;;;;;;40.80;5.70;;;11.10;99.90;;;;;;5078648;28;20055;-76
2023/01/01 10:48:20;;;;;;;49.20;6.05;;;11.10;99.90;;;;;;5097034;28;20050;-76
2023/01/01 10:50:55;;;;;;;47.45;6.15;;;11.20;99.90;;;;;;5096023;28;20047;-77
2023/01/01 10:53:29;;;;;;;54.72;6.95;;;11.20;99.90;;;;;;5114493;28;20055;-76
2023/01/01 10:56:06;;;;;;;47.70;5.90;;;11.20;99.90;;;;;;5097123;28;20043;-75
2023/01/01 10:58:46;;;;;;;41.20;5.90;;;11.20;99.90;;;;;;5095799;28;20039;-77
2023/01/01 11:01:16;;;;;;;45.45;5.97;;;11.30;99.90;;;;;;5083070;28;20129;-75
2023/01/01 11:04:12;;;;;;;49.10;6.25;;;11.30;99.90;;;;;;5117291;28;20357;-78
2023/01/01 11:06:45;;;;;;;37.58;5.30;;;11.30;99.90;;;;;;5118335;28;20059;-77
2023/01/01 11:09:26;;;;;;;55.85;6.68;;;11.40;99.90;;;;;;5099793;28;20055;-73
2023/01/01 11:11:59;;;;;;;40.72;5.43;;;11.50;99.90;;;;;;5098738;28;20040;-74
2023/01/01 11:14:41;;;;;;;45.10;6.30;;;11.50;99.90;;;;;;5117574;28;20494;-74
2023/01/01 11:17:09;;;;;;;46.75;6.03;;;11.50;99.90;;;;;;5098764;28;20070;-75
2023/01/01 11:19:40;;;;;;;43.75;6.25;;;11.60;99.90;;;;;;5117528;28;20368;-76
2023/01/01 11:22:35;;;;;;;45.15;5.70;;;11.50;99.90;;;;;;5099787;28;20059;-75
2023/01/01 11:25:15;;;;;;;50.67;6.30;;;11.60;99.90;;;;;;5116035;28;20502;-78
2023/01/01 11:27:43;;;;;;;43.83;5.72;;;11.60;99.90;;;;;;5117438;28;20052;-75
2023/01/01 11:30:27;;;;;;;37.42;5.75;;;11.60;99.90;;;;;;5081580;28;20052;-75
2023/01/01 11:33:01;;;;;;;49.40;5.72;;;11.60;99.90;;;;;;5117419;28;20040;-74
2023/01/01 11:35:48;;;;;;;49.20;6.45;;;11.60;99.90;;;;;;5117164;28;20043;-79
2023/01/01 11:38:18;;;;;;;46.50;6.47;;;11.60;99.90;;;;;;5116032;28;20050;-74
2023/01/01 11:41:00;;;;;;;48.47;6.45;;;11.60;99.90;;;;;;5117217;28;20039;-77
2023/01/01 11:43:38;;;;;;;43.63;5.80;;;11.60;99.90;;;;;;5099504;28;20376;-77
2023/01/01 11:46:09;;;;;;;45.38;5.93;;;11.60;99.90;;;;;;5116975;28;20063;-77
2023/01/01 11:48:41;;;;;;;39.47;6.13;;;11.60;99.90;;;;;;5099026;28;20507;-77
2023/01/01 11:51:10;;;;;;;44.05;5.15;;;11.70;99.90;;;;;;5097899;28;20066;-76
2023/01/01 11:53:40;;;;;;;43.78;5.55;;;11.70;99.90;;;;;;5116606;28;20067;-78
2023/01/01 11:56:21;;;;;;;55.67;5.85;;;11.80;99.90;;;;;;5116708;28;20364;-77
2023/01/01 11:58:56;;;;;;;42.30;5.60;;;11.80;99.90;;;;;;5097979;28;20046;-77
2023/01/01 12:01:38;;;;;;;45.63;5.82;;;11.80;99.90;;;;;;5116692;28;20357;-76
2023/01/01 12:04:13;;;;;;;51.17;6.18;;;11.80;99.90;;;;;;5097850;28;20051;-76
2023/01/01 12:06:53;;;;;;;41.15;5.75;;;11.80;99.90;;;;;;5116409;28;20063;-77
2023/01/01 12:09:50;;;;;;;47.47;6.05;;;11.80;99.90;;;;;;5099035;28;20043;-77
2023/01/01 12:12:29;;;;;;;45.00;5.63;;;11.80;99.90;;;;;;5115308;28;20039;-79
2023/01/01 12:15:24;;;;;;;51.05;6.30;;;11.80;99.90;;;;;;5116355;28;20044;-77
2023/01/01 12:18:17;;;;;;;48.92;6.40;;;11.80;99.90;;;;;;5115262;28;20043;-77
2023/01/01 12:21:07;;;;;;;41.58;5.63;;;11.80;99.90;;;;;;5116539;28;20043;-75
2023/01/01 12:23:35;;;;;;;45.72;6.20;;;11.90;99.90;;;;;;5097307;28;20048;-75
2023/01/01 12:26:44;;;;;;;48.28;5.88;;;11.80;99.90;;;;;;5098305;28;20471;-75
2023/01/01 12:29:47;;;;;;;50.80;6.18;;;11.80;99.90;;;;;;5090957;28;20052;-77
2023/01/01 12:32:33;;;;;;;48.08;6.00;;;11.80;99.90;;;;;;5088524;28;20058;-76
2023/01/01 12:35:25;;;;;;;34.72;5.38;;;11.80;99.90;;;;;;5116176;28;20051;-78
2023/01/01 12:38:34;;;;;;;37.25;5.82;;;11.80;99.90;;;;;;5115091;28;20487;-79
2023/01/01 12:41:12;;;;;;;42.67;6.10;;;11.80;99.90;;;;;;5082635;28;20046;-78
2023/01/01 12:43:48;;;;;;;38.13;5.28;;;11.80;99.90;;;;;;5097053;28;20043;-78
2023/01/01 12:46:28;;;;;;;45.75;5.85;;;11.80;99.90;;;;;;5098212;28;20062;-78
2023/01/01 12:49:04;;;;;;;41.92;5.45;;;11.90;99.90;;;;;;5098351;28;20048;-78
2023/01/01 12:52:23;;;;;;;49.55;6.00;;;11.90;99.90;;;;;;5114910;28;20376;-76
2023/01/01 12:54:53;;;;;;;40.25;5.93;;;11.90;99.90;;;;;;5077508;28;20502;-77
2023/01/01 12:57:47;;;;;;;45.95;5.65;;;12.00;99.90;;;;;;5115372;28;20066;-78
2023/01/01 13:00:18;;;;;;;42.70;5.93;;;12.00;99.90;;;;;;5116186;28;20047;-80
2023/01/01 13:02:54;;;;;;;45.10;6.63;;;12.00;99.90;;;;;;5098330;28;20372;-81
2023/01/01 13:05:39;;;;;;;63.05;6.72;;;12.00;99.90;;;;;;5096783;28;20136;-79
2023/01/01 13:08:10;;;;;;;45.80;5.82;;;12.00;99.90;;;;;;5077923;28;20044;-77
2023/01/01 13:10:41;;;;;;;45.22;5.82;;;11.40;99.90;;;;;;5106102;28;20044;-77
2023/01/01 13:13:12;;;;;;;38.88;5.72;;;12.10;99.90;;;;;;5115519;28;20047;-75
2023/01/01 13:15:41;;;;;;;43.85;6.05;;;12.00;99.90;;;;;;5097597;28;20472;-77